CDT,Max TemperatureF,Mean TemperatureF,Min TemperatureF,Max Dew PointF,MeanDew PointF,Min DewpointF,Max Humidity, Mean Humidity, Min Humidity, Max Sea Level PressureIn, Mean Sea Level PressureIn, Min Sea Level PressureIn, Max VisibilityMiles, Mean VisibilityMiles, Min VisibilityMiles, Max Wind SpeedMPH, Mean Wind SpeedMPH, Max Gust SpeedMPH,PrecipitationIn, CloudCover, Events, WindDirDegrees
2012-9-1,101,90,79,65,59,55,58,41,23,30.01,29.94,29.88,10,10,10,17,8,21,0.00,3,,158
2012-9-2,100,88,75,66,62,56,74,49,23,30.03,29.93,29.84,10,10,10,17,9,23,0.00,0,,177
2012-9-3,102,89,76,66,60,54,64,44,24,30.02,29.88,29.79,10,10,10,17,10,23,0.00,0,,175
2012-9-4,104,90,76,68,60,53,69,46,23,29.96,29.84,29.74,10,10,10,16,10,25,0.00,0,,175
2012-9-5,105,92,78,65,54,42,62,38,14,29.84,29.79,29.71,10,10,10,17,10,26,0.00,0,,166
2012-9-6,104,89,73,66,56,50,55,37,18,29.95,29.86,29.78,10,10,10,14,6,18,0.00,1,,153
2012-9-7,105,89,73,63,53,48,57,38,18,29.96,29.83,29.73,10,10,10,35,8,43,0.00,1,,177
2012-9-8,82,75,68,54,46,39,57,40,23,30.16,30.09,29.92,10,10,10,30,15,40,0.00,1,,11
2012-9-9,89,77,64,46,37,28,44,28,12,30.21,30.11,30.04,10,10,2,14,4,21,0.00,0,,184
2012-9-10,96,78,60,40,34,29,40,25,10,30.11,30.03,29.93,10,10,10,14,4,21,0.00,0,,92
2012-9-11,96,81,65,54,43,32,53,34,14,30.09,29.96,29.87,10,10,10,15,8,28,0.00,0,,166
2012-9-12,97,82,66,63,53,44,64,42,20,29.98,29.92,29.85,10,10,10,20,8,24,0.00,0,,161
2012-9-13,83,72,61,67,61,55,87,67,47,30.28,30.13,29.91,10,8,1,21,12,24,1.02,7,Rain-Thunderstorm,9
2012-9-14,66,63,60,56,54,53,78,71,63,30.31,30.26,30.22,10,10,10,17,9,21,0.00,8,,359
2012-9-15,70,66,61,58,55,52,84,71,57,30.27,30.21,30.13,10,10,9,12,5,14,0.03,8,Rain,314
2012-9-16,79,70,61,61,58,57,84,66,48,30.14,30.05,29.93,10,10,8,12,3,14,0.00,3,,139
2012-9-17,88,76,63,61,58,48,87,57,26,29.98,29.89,29.78,10,10,2,13,5,16,0.00,3,,189
2012-9-18,81,72,63,59,57,53,84,62,39,30.16,30.04,29.88,10,10,10,24,6,31,0.02,1,Rain-Thunderstorm,54
2012-9-19,90,74,58,59,54,48,87,57,26,30.14,30.07,29.99,10,10,2,13,6,17,0.00,0,,191
2012-9-20,93,79,65,59,52,44,73,46,19,30.05,29.98,29.90,10,10,10,18,9,24,0.00,0,,185
2012-9-21,96,80,64,52,44,33,60,36,11,30.05,29.94,29.86,10,10,10,17,8,22,0.00,0,,179
2012-9-22,96,76,56,51,42,31,62,37,11,30.12,30.03,29.96,10,10,10,15,5,18,0.00,0,,174
2012-9-23,95,76,57,57,48,43,72,45,17,30.18,30.10,30.04,10,10,10,16,6,23,0.00,0,,175
2012-9-24,94,81,68,64,54,48,78,50,22,30.10,30.01,29.89,10,10,10,24,13,29,0.00,0,,180
2012-9-25,94,83,72,62,57,52,73,49,24,29.97,29.87,29.79,10,10,10,30,17,38,0.00,0,,178
2012-9-26,91,82,72,64,60,56,79,56,32,30.01,29.90,29.83,10,10,10,20,12,25,0.00,1,,166
2012-9-27,91,80,68,65,63,57,87,61,34,30.11,30.01,29.93,10,9,2,28,10,35,0.40,4,Rain,130
2012-9-28,77,72,67,70,66,64,93,89,84,30.09,30.00,29.94,10,5,1,23,9,30,2.78,8,Rain-Thunderstorm,55
2012-9-29,69,67,65,64,63,59,93,85,76,30.01,29.91,29.83,10,5,2,30,15,38,2.66,8,Rain,25
2012-9-30,80,71,62,61,59,55,84,63,42,30.00,29.94,29.85,10,10,10,18,9,22,0.00,4,,331